createdAt,value
2022-12-31T00:01:59.182Z,2.03
2022-12-31T00:04:25.726Z,0.90
2022-12-31T00:06:52.150Z,2.05
2022-12-31T00:09:18.588Z,1.35
2022-12-31T00:11:45.162Z,0.98
2022-12-31T00:14:12.054Z,0.80
2022-12-31T00:16:40.741Z,0.80
2022-12-31T00:19:13.307Z,0.70
2022-12-31T00:21:40.283Z,1.40
2022-12-31T00:24:07.898Z,1.00
2022-12-31T00:26:35.695Z,1.55
2022-12-31T00:29:03.847Z,1.20
2022-12-31T00:31:36.047Z,2.22
2022-12-31T00:34:03.835Z,1.48
2022-12-31T00:36:33.608Z,0.40
2022-12-31T00:39:01.733Z,0.88
2022-12-31T00:41:28.908Z,1.35
2022-12-31T00:43:56.040Z,2.40
2022-12-31T00:46:23.546Z,1.95
2022-12-31T00:48:50.797Z,1.40
2022-12-31T00:51:19.261Z,1.52
2022-12-31T00:53:46.302Z,3.92
2022-12-31T00:56:21.478Z,2.13
2022-12-31T00:58:48.115Z,1.90
2022-12-31T01:01:27.348Z,2.05
2022-12-31T01:03:57.520Z,2.45
2022-12-31T01:06:24.621Z,1.73
2022-12-31T01:08:52.279Z,1.30
2022-12-31T01:11:19.212Z,1.52
2022-12-31T01:14:02.552Z,1.45
2022-12-31T01:16:30.713Z,3.80
2022-12-31T01:18:59.665Z,2.40
2022-12-31T01:21:26.403Z,2.92
2022-12-31T01:23:53.116Z,1.35
2022-12-31T01:26:20.239Z,2.10
2022-12-31T01:28:47.462Z,1.83
2022-12-31T01:31:16.335Z,3.00
2022-12-31T01:33:43.547Z,1.73
2022-12-31T01:36:13.159Z,1.65
2022-12-31T01:38:40.914Z,1.17
2022-12-31T01:41:11.017Z,1.58
2022-12-31T01:43:47.880Z,1.35
2022-12-31T01:46:25.138Z,2.28
2022-12-31T01:48:55.286Z,2.05
2022-12-31T01:51:22.547Z,1.20
2022-12-31T01:53:50.433Z,1.52
2022-12-31T01:56:18.631Z,1.35
2022-12-31T01:58:49.580Z,1.58
2022-12-31T02:01:27.846Z,1.92
2022-12-31T02:03:55.801Z,1.25
2022-12-31T02:06:34.953Z,1.85
2022-12-31T02:09:04.075Z,1.45
2022-12-31T02:11:36.338Z,1.13
2022-12-31T02:14:07.379Z,1.02
2022-12-31T02:16:56.525Z,0.60
2022-12-31T02:20:00.146Z,0.57
2022-12-31T02:23:08.157Z,1.23
2022-12-31T02:26:04.879Z,0.40
2022-12-31T02:29:03.870Z,0.30
2022-12-31T02:31:39.468Z,1.27
2022-12-31T02:34:14.317Z,1.00
2022-12-31T02:36:45.575Z,0.32
2022-12-31T02:39:13.940Z,0.60
2022-12-31T02:41:52.541Z,1.55
2022-12-31T02:44:25.167Z,0.68
2022-12-31T02:47:07.276Z,0.40
2022-12-31T02:49:42.643Z,0.30
2022-12-31T02:52:25.018Z,1.45
2022-12-31T02:55:17.654Z,0.50
2022-12-31T02:58:02.014Z,0.40
2022-12-31T03:00:51.251Z,0.47
2022-12-31T03:03:20.299Z,0.75
2022-12-31T03:05:48.786Z,0.30
2022-12-31T03:10:52.526Z,0.95
2022-12-31T03:13:19.219Z,0.40
2022-12-31T03:15:47.711Z,0.60
2022-12-31T03:18:16.904Z,1.35
2022-12-31T03:21:05.221Z,0.50
2022-12-31T03:23:39.986Z,0.40
2022-12-31T03:26:13.016Z,1.27
2022-12-31T03:28:42.202Z,0.40
2022-12-31T03:31:09.424Z,0.73
2022-12-31T03:33:40.281Z,0.45
2022-12-31T03:36:12.222Z,2.55
2022-12-31T03:38:39.195Z,1.65
2022-12-31T03:41:06.160Z,0.50
2022-12-31T03:43:32.574Z,0.52
2022-12-31T03:46:01.416Z,2.92
2022-12-31T03:48:28.383Z,0.50
2022-12-31T03:50:55.088Z,1.58
2022-12-31T03:53:21.874Z,1.30
2022-12-31T03:55:54.855Z,1.27
2022-12-31T03:58:22.372Z,2.83
2022-12-31T04:00:49.451Z,0.50
2022-12-31T04:03:16.189Z,0.55
2022-12-31T04:05:42.606Z,0.40
2022-12-31T04:08:09.312Z,1.38
2022-12-31T04:10:35.902Z,0.50
2022-12-31T04:13:04.476Z,1.05
2022-12-31T04:15:31.128Z,0.73
2022-12-31T04:17:57.583Z,1.23
2022-12-31T04:20:24.172Z,1.05
2022-12-31T04:22:50.908Z,0.45
2022-12-31T04:25:18.787Z,0.73
2022-12-31T04:27:45.934Z,0.35
2022-12-31T04:30:13.234Z,0.90
2022-12-31T04:32:40.233Z,0.68
2022-12-31T04:35:07.396Z,0.40
2022-12-31T04:37:34.151Z,0.98
2022-12-31T04:40:05.921Z,1.65
2022-12-31T04:42:33.913Z,0.85
2022-12-31T04:45:00.350Z,1.80
2022-12-31T04:47:26.934Z,3.42
2022-12-31T04:49:53.361Z,0.70
2022-12-31T04:52:19.827Z,1.13
2022-12-31T04:54:46.339Z,1.58
2022-12-31T04:57:12.847Z,1.38
2022-12-31T04:59:39.792Z,1.48
2022-12-31T05:02:06.465Z,0.98
2022-12-31T05:04:33.141Z,1.23
2022-12-31T05:06:59.626Z,1.90
2022-12-31T05:09:27.610Z,2.03
2022-12-31T05:11:54.298Z,0.68
2022-12-31T05:14:20.799Z,1.88
2022-12-31T05:16:47.207Z,0.70
2022-12-31T05:19:13.829Z,1.15
2022-12-31T05:21:40.519Z,0.85
2022-12-31T05:24:07.861Z,0.88
2022-12-31T05:26:35.089Z,1.13
2022-12-31T05:29:01.677Z,0.70
2022-12-31T05:31:28.207Z,1.15
2022-12-31T05:33:54.679Z,1.75
2022-12-31T05:36:21.166Z,1.83
2022-12-31T05:38:47.592Z,1.15
2022-12-31T05:41:14.000Z,0.98
2022-12-31T05:43:40.442Z,2.08
2022-12-31T05:46:07.063Z,0.68
2022-12-31T05:48:33.503Z,1.50
2022-12-31T05:50:59.982Z,1.17
2022-12-31T05:53:26.447Z,0.43
2022-12-31T05:55:53.101Z,1.75
2022-12-31T05:58:19.598Z,2.33
2022-12-31T06:00:46.213Z,3.03
2022-12-31T06:03:13.215Z,1.13
2022-12-31T06:05:42.271Z,2.05
2022-12-31T06:08:09.631Z,1.65
2022-12-31T06:10:36.209Z,1.88
2022-12-31T06:13:02.931Z,1.38
2022-12-31T06:15:29.961Z,4.03
2022-12-31T06:17:56.735Z,1.05
2022-12-31T06:20:23.287Z,1.20
2022-12-31T06:22:49.787Z,3.58
2022-12-31T06:25:16.466Z,1.20
2022-12-31T06:27:43.164Z,1.00
2022-12-31T06:30:10.541Z,1.75
2022-12-31T06:32:36.977Z,3.70
2022-12-31T06:35:03.932Z,1.27
2022-12-31T06:37:30.365Z,2.15
2022-12-31T06:39:56.863Z,2.22
2022-12-31T06:42:23.445Z,0.80
2022-12-31T06:44:49.840Z,1.73
2022-12-31T06:47:16.473Z,4.32
2022-12-31T06:49:42.966Z,1.02
2022-12-31T06:52:09.847Z,2.20
2022-12-31T06:54:36.582Z,3.30
2022-12-31T06:57:03.354Z,1.75
2022-12-31T06:59:30.709Z,1.88
2022-12-31T07:02:05.433Z,0.90
2022-12-31T07:05:07.931Z,2.10
2022-12-31T07:07:43.865Z,2.28
2022-12-31T07:10:36.092Z,1.48
2022-12-31T07:13:19.280Z,3.72
2022-12-31T07:16:04.619Z,2.90
2022-12-31T07:19:06.587Z,3.28
2022-12-31T07:21:41.485Z,1.25
2022-12-31T07:24:09.911Z,2.28
2022-12-31T07:29:42.100Z,4.63
2022-12-31T07:32:20.827Z,2.78
2022-12-31T07:34:52.810Z,1.85
2022-12-31T07:37:52.472Z,2.88
2022-12-31T07:40:34.302Z,2.60
2022-12-31T07:43:28.690Z,3.50
2022-12-31T07:46:18.542Z,3.25
2022-12-31T07:48:45.487Z,2.85
2022-12-31T07:51:12.339Z,4.53
2022-12-31T07:53:39.550Z,1.50
2022-12-31T07:56:08.439Z,2.50
2022-12-31T07:58:36.490Z,5.00
2022-12-31T08:01:03.925Z,1.92
2022-12-31T08:03:42.817Z,2.28
2022-12-31T08:06:29.934Z,2.50
2022-12-31T08:09:15.435Z,3.15
2022-12-31T08:11:55.121Z,2.60
2022-12-31T08:14:21.861Z,1.92
2022-12-31T08:16:48.794Z,4.68
2022-12-31T08:19:33.340Z,1.52
2022-12-31T08:22:36.683Z,2.13
2022-12-31T08:25:18.476Z,3.65
2022-12-31T08:27:50.909Z,3.00
2022-12-31T08:30:20.545Z,3.33
2022-12-31T08:33:14.119Z,1.63
2022-12-31T08:35:40.663Z,2.92
2022-12-31T08:38:24.018Z,1.55
2022-12-31T08:40:53.254Z,5.22
2022-12-31T08:43:51.853Z,1.40
2022-12-31T08:46:29.354Z,1.95
2022-12-31T08:48:56.056Z,1.65
2022-12-31T08:51:24.892Z,2.72
2022-12-31T08:53:53.162Z,2.85
2022-12-31T08:56:28.339Z,4.32
2022-12-31T08:58:57.975Z,6.05
2022-12-31T09:01:32.064Z,4.78
2022-12-31T09:04:05.898Z,1.83
2022-12-31T09:06:38.239Z,6.15
2022-12-31T09:09:10.777Z,3.13
2022-12-31T09:11:50.537Z,1.20
2022-12-31T09:14:41.355Z,4.03
2022-12-31T09:17:07.708Z,2.03
2022-12-31T09:19:34.299Z,3.13
2022-12-31T09:22:00.954Z,4.28
2022-12-31T09:24:27.686Z,3.92
2022-12-31T09:26:57.104Z,3.03
2022-12-31T09:29:31.151Z,5.03
2022-12-31T09:32:22.527Z,3.08
2022-12-31T09:35:04.093Z,3.53
2022-12-31T09:37:38.409Z,4.65
2022-12-31T09:40:29.174Z,2.33
2022-12-31T09:43:41.027Z,3.65
2022-12-31T09:46:22.436Z,5.80
2022-12-31T09:48:58.215Z,3.63
2022-12-31T09:51:48.925Z,5.70
2022-12-31T09:54:40.177Z,4.00
2022-12-31T09:57:40.112Z,4.60
2022-12-31T10:00:35.289Z,6.03
2022-12-31T10:03:29.669Z,3.95
2022-12-31T10:06:14.673Z,3.08
2022-12-31T10:08:49.709Z,2.97
2022-12-31T10:11:34.026Z,4.47
2022-12-31T10:14:26.007Z,2.70
2022-12-31T10:17:04.354Z,5.30
2022-12-31T10:20:05.472Z,3.50
2022-12-31T10:22:45.542Z,3.92
2022-12-31T10:25:38.572Z,3.00
2022-12-31T10:30:43.834Z,3.88
2022-12-31T10:33:16.771Z,4.93
2022-12-31T10:36:08.123Z,7.18
2022-12-31T10:38:46.857Z,3.63
2022-12-31T10:41:34.732Z,6.53
2022-12-31T10:44:22.575Z,6.00
2022-12-31T10:47:07.782Z,4.05
2022-12-31T10:50:12.030Z,5.18
2022-12-31T10:52:58.004Z,5.95
2022-12-31T10:55:38.123Z,3.75
2022-12-31T10:58:26.226Z,2.60
2022-12-31T11:01:06.212Z,5.35
2022-12-31T11:04:03.169Z,7.68
2022-12-31T11:06:48.578Z,3.33
2022-12-31T11:09:34.851Z,4.80
2022-12-31T11:12:46.960Z,3.95
2022-12-31T11:15:31.308Z,5.18
2022-12-31T11:18:22.346Z,4.55
2022-12-31T11:20:48.696Z,2.60
2022-12-31T11:23:39.250Z,2.88
2022-12-31T11:26:17.652Z,4.68
2022-12-31T11:28:56.683Z,6.85
2022-12-31T11:31:36.529Z,4.20
2022-12-31T11:34:44.860Z,2.45
2022-12-31T11:37:28.634Z,3.63
2022-12-31T11:40:16.698Z,4.55
2022-12-31T11:43:00.354Z,7.82
2022-12-31T11:46:03.983Z,5.07
2022-12-31T11:48:46.691Z,5.15
2022-12-31T11:51:33.595Z,4.05
2022-12-31T11:54:08.777Z,4.05
2022-12-31T11:56:41.501Z,5.55
2022-12-31T11:59:18.680Z,3.42
2022-12-31T12:01:52.686Z,7.45
2022-12-31T12:04:19.567Z,3.70
2022-12-31T12:06:48.790Z,3.63
2022-12-31T12:09:21.988Z,3.85
2022-12-31T12:11:59.632Z,5.25
2022-12-31T12:14:36.027Z,5.38
2022-12-31T12:17:06.500Z,4.85
2022-12-31T12:19:35.650Z,10.98
2022-12-31T12:22:22.519Z,4.97
2022-12-31T12:25:18.417Z,5.63
2022-12-31T12:27:45.082Z,3.75
2022-12-31T12:30:19.749Z,3.78
2022-12-31T12:33:00.497Z,6.22
2022-12-31T12:35:30.659Z,4.90
2022-12-31T12:38:01.822Z,4.85
2022-12-31T12:40:33.744Z,5.07
2022-12-31T12:43:01.949Z,5.00
2022-12-31T12:45:41.699Z,4.47
2022-12-31T12:48:17.241Z,4.55
2022-12-31T12:50:46.903Z,1.83
2022-12-31T12:53:27.138Z,6.47
2022-12-31T12:55:56.514Z,4.40
2022-12-31T12:58:34.536Z,5.47
2022-12-31T13:01:19.002Z,4.93
2022-12-31T13:04:23.780Z,4.57
2022-12-31T13:07:03.386Z,3.85
2022-12-31T13:09:54.810Z,3.60
2022-12-31T13:12:37.837Z,7.28
2022-12-31T13:15:24.083Z,6.00
2022-12-31T13:18:02.729Z,6.18
2022-12-31T13:21:01.643Z,5.32
2022-12-31T13:23:43.113Z,2.90
2022-12-31T13:26:48.411Z,2.33
2022-12-31T13:29:19.811Z,5.07
2022-12-31T13:31:48.783Z,4.13
2022-12-31T13:34:27.110Z,3.53
2022-12-31T13:36:56.605Z,4.65
2022-12-31T13:39:30.210Z,6.03
2022-12-31T13:42:07.392Z,3.40
2022-12-31T13:44:43.867Z,7.72
2022-12-31T13:47:24.522Z,3.60
2022-12-31T13:50:15.124Z,4.97
2022-12-31T13:52:48.629Z,5.22
2022-12-31T13:55:40.083Z,4.15
2022-12-31T13:58:31.568Z,2.72
2022-12-31T14:01:30.706Z,5.93
2022-12-31T14:04:02.892Z,4.30
2022-12-31T14:06:52.715Z,8.70
2022-12-31T14:09:34.652Z,4.15
2022-12-31T14:12:17.987Z,6.35
2022-12-31T14:14:59.258Z,9.32
2022-12-31T14:17:52.076Z,4.75
2022-12-31T14:20:24.587Z,5.75
2022-12-31T14:22:55.082Z,6.30
2022-12-31T14:25:28.059Z,9.15
2022-12-31T14:27:56.348Z,2.33
2022-12-31T14:30:27.727Z,15.20
2022-12-31T14:33:06.749Z,6.07
2022-12-31T14:35:55.777Z,5.32
2022-12-31T14:38:28.186Z,5.70
2022-12-31T14:41:21.232Z,3.42
2022-12-31T14:46:58.656Z,3.40
2022-12-31T14:49:36.382Z,5.55
2022-12-31T14:52:25.280Z,6.40
2022-12-31T14:55:31.247Z,3.28
2022-12-31T14:58:27.037Z,4.30
2022-12-31T15:00:55.487Z,2.67
2022-12-31T15:03:24.313Z,6.68
2022-12-31T15:06:24.312Z,6.13
2022-12-31T15:09:18.599Z,4.75
2022-12-31T15:11:56.532Z,4.97
2022-12-31T15:14:42.151Z,6.35
2022-12-31T15:17:23.595Z,4.70
2022-12-31T15:20:05.393Z,4.95
2022-12-31T15:22:49.229Z,3.50
2022-12-31T15:25:41.569Z,5.40
2022-12-31T15:28:43.030Z,4.90
2022-12-31T15:31:20.444Z,5.30
2022-12-31T15:33:56.995Z,5.22
2022-12-31T15:36:26.602Z,4.90
2022-12-31T15:39:22.580Z,3.85
2022-12-31T15:42:36.284Z,19.40
2022-12-31T15:44:54.998Z,8.15
2022-12-31T15:47:30.621Z,6.10
2022-12-31T15:50:02.275Z,3.85
2022-12-31T15:53:00.120Z,4.88
2022-12-31T15:55:46.305Z,3.10
2022-12-31T15:58:16.736Z,2.80
2022-12-31T16:00:51.162Z,3.90
2022-12-31T16:03:24.730Z,3.95
2022-12-31T16:06:01.835Z,4.07
2022-12-31T16:08:32.430Z,4.80
2022-12-31T16:10:59.970Z,4.07
2022-12-31T16:13:28.822Z,3.58
2022-12-31T16:16:07.193Z,4.13
2022-12-31T16:18:43.252Z,7.05
2022-12-31T16:21:34.636Z,4.25
2022-12-31T16:24:05.218Z,3.70
2022-12-31T16:26:39.389Z,4.25
2022-12-31T16:29:05.896Z,6.20
2022-12-31T16:31:32.668Z,3.63
2022-12-31T16:34:12.404Z,4.93
2022-12-31T16:36:38.985Z,5.20
2022-12-31T16:39:25.758Z,3.83
2022-12-31T16:42:06.518Z,4.20
2022-12-31T16:44:33.055Z,5.70
2022-12-31T16:47:02.555Z,5.28
2022-12-31T16:49:32.187Z,6.00
2022-12-31T16:52:03.258Z,5.28
2022-12-31T16:54:34.703Z,5.13
2022-12-31T16:57:01.893Z,4.32
2022-12-31T16:59:35.790Z,5.60
2022-12-31T17:02:09.715Z,4.32
2022-12-31T17:04:38.758Z,3.20
2022-12-31T17:07:31.837Z,5.13
2022-12-31T17:10:07.740Z,7.53
2022-12-31T17:13:08.731Z,4.63
2022-12-31T17:15:43.079Z,6.55
2022-12-31T17:18:19.900Z,4.43
2022-12-31T17:20:46.801Z,3.40
2022-12-31T17:23:23.636Z,4.60
2022-12-31T17:26:01.188Z,3.75
2022-12-31T17:28:32.501Z,4.47
2022-12-31T17:31:20.594Z,6.63
2022-12-31T17:34:03.752Z,12.30
2022-12-31T17:36:30.309Z,4.03
2022-12-31T17:39:15.647Z,3.78
2022-12-31T17:41:44.844Z,3.97
2022-12-31T17:44:17.954Z,6.95
2022-12-31T17:46:44.623Z,6.45
2022-12-31T17:49:14.303Z,4.32
2022-12-31T17:51:47.197Z,5.05
2022-12-31T17:54:15.882Z,3.75
2022-12-31T17:56:43.459Z,9.00
2022-12-31T17:59:25.794Z,7.63
2022-12-31T18:01:52.600Z,4.43
2022-12-31T18:04:20.843Z,4.90
2022-12-31T18:06:47.378Z,5.97
2022-12-31T18:09:16.088Z,4.45
2022-12-31T18:11:42.803Z,5.70
2022-12-31T18:14:13.852Z,6.03
2022-12-31T18:16:40.371Z,6.20
2022-12-31T18:19:30.677Z,7.30
2022-12-31T18:24:27.777Z,6.28
2022-12-31T18:26:54.592Z,6.35
2022-12-31T18:29:22.352Z,5.05
2022-12-31T18:31:50.103Z,4.32
2022-12-31T18:34:18.193Z,5.45
2022-12-31T18:36:45.133Z,4.72
2022-12-31T18:39:11.803Z,8.05
2022-12-31T18:41:42.082Z,6.40
2022-12-31T18:44:11.689Z,5.13
2022-12-31T18:46:38.328Z,3.33
2022-12-31T18:49:05.180Z,6.05
2022-12-31T18:51:32.706Z,5.68
2022-12-31T18:54:03.279Z,7.53
2022-12-31T18:56:29.864Z,7.78
2022-12-31T18:58:56.551Z,10.20
2022-12-31T19:01:32.250Z,5.95
2022-12-31T19:04:02.209Z,6.95
2022-12-31T19:06:29.943Z,6.50
2022-12-31T19:08:57.008Z,7.80
2022-12-31T19:11:23.691Z,7.85
2022-12-31T19:13:50.692Z,5.53
2022-12-31T19:16:18.171Z,4.28
2022-12-31T19:18:45.289Z,6.43
2022-12-31T19:21:20.930Z,4.75
2022-12-31T19:23:47.478Z,6.03
2022-12-31T19:26:16.494Z,11.70
2022-12-31T19:28:43.939Z,4.53
2022-12-31T19:31:10.626Z,4.25
2022-12-31T19:33:37.531Z,5.18
2022-12-31T19:36:04.376Z,7.13
2022-12-31T19:38:32.703Z,7.32
2022-12-31T19:41:00.423Z,6.60
2022-12-31T19:43:26.963Z,8.30
2022-12-31T19:45:53.984Z,11.45
2022-12-31T19:48:30.285Z,8.13
2022-12-31T19:50:59.460Z,10.38
2022-12-31T19:53:27.382Z,6.57
2022-12-31T19:55:54.049Z,7.60
2022-12-31T19:58:25.429Z,7.32
2022-12-31T20:00:58.206Z,10.48
2022-12-31T20:03:28.494Z,9.85
2022-12-31T20:06:08.452Z,9.77
2022-12-31T20:08:37.464Z,6.35
2022-12-31T20:11:09.158Z,10.45
2022-12-31T20:13:36.662Z,10.30
2022-12-31T20:16:05.617Z,6.55
2022-12-31T20:18:32.196Z,6.68
2022-12-31T20:20:58.658Z,10.40
2022-12-31T20:23:25.169Z,12.02
2022-12-31T20:26:01.755Z,7.07
2022-12-31T20:28:28.857Z,6.65
2022-12-31T20:30:56.007Z,5.93
2022-12-31T20:33:22.770Z,8.75
2022-12-31T20:35:50.007Z,12.82
2022-12-31T20:38:16.625Z,7.97
2022-12-31T20:40:46.899Z,8.13
2022-12-31T20:43:14.308Z,11.32
2022-12-31T20:45:41.698Z,7.32
2022-12-31T20:48:08.426Z,6.10
2022-12-31T20:50:35.192Z,6.72
2022-12-31T20:53:02.215Z,9.60
2022-12-31T20:55:30.719Z,8.23
2022-12-31T20:57:57.236Z,11.50
2022-12-31T21:00:24.047Z,7.93
2022-12-31T21:02:57.880Z,6.68
2022-12-31T21:05:31.302Z,7.10
2022-12-31T21:07:57.906Z,7.85
2022-12-31T21:10:24.650Z,6.60
2022-12-31T21:12:53.320Z,9.45
2022-12-31T21:15:21.394Z,6.85
2022-12-31T21:17:48.025Z,5.50
2022-12-31T21:20:14.540Z,4.97
2022-12-31T21:22:41.206Z,7.63
2022-12-31T21:25:07.920Z,6.78
2022-12-31T21:27:35.475Z,11.43
2022-12-31T21:30:20.956Z,6.97
2022-12-31T21:32:48.417Z,5.10
2022-12-31T21:38:02.680Z,12.93
2022-12-31T21:40:30.469Z,8.43
2022-12-31T21:42:57.415Z,7.45
2022-12-31T21:45:23.940Z,5.82
2022-12-31T21:48:09.363Z,6.18
2022-12-31T21:50:36.014Z,11.13
2022-12-31T21:53:02.523Z,7.05
2022-12-31T21:55:47.566Z,5.50
2022-12-31T21:58:32.044Z,9.60
2022-12-31T22:01:18.548Z,5.38
2022-12-31T22:03:45.678Z,9.70
2022-12-31T22:06:16.165Z,7.85
2022-12-31T22:08:44.404Z,8.00
2022-12-31T22:11:12.862Z,7.95
2022-12-31T22:13:40.296Z,6.72
2022-12-31T22:16:07.587Z,11.88
2022-12-31T22:18:38.944Z,8.50
2022-12-31T22:21:19.345Z,8.43
2022-12-31T22:23:52.229Z,9.20
2022-12-31T22:26:21.401Z,7.22
2022-12-31T22:28:47.961Z,10.93
2022-12-31T22:31:20.385Z,7.68
2022-12-31T22:33:47.265Z,7.80
2022-12-31T22:36:16.792Z,7.80
2022-12-31T22:38:44.190Z,9.00
2022-12-31T22:41:13.907Z,11.95
2022-12-31T22:43:42.993Z,12.75
2022-12-31T22:46:12.448Z,7.70
2022-12-31T22:48:40.034Z,11.63
2022-12-31T22:51:08.096Z,9.82
2022-12-31T22:53:35.071Z,12.32
2022-12-31T22:56:01.833Z,14.00
2022-12-31T22:58:28.323Z,9.75
2022-12-31T23:00:54.810Z,9.00
2022-12-31T23:03:21.475Z,9.02
2022-12-31T23:05:52.580Z,24.10
2022-12-31T23:08:23.814Z,32.20
2022-12-31T23:11:05.353Z,18.92
2022-12-31T23:16:43.873Z,20.02
2022-12-31T23:19:29.412Z,20.98
2022-12-31T23:22:14.900Z,42.30
2022-12-31T23:24:41.690Z,42.70
2022-12-31T23:27:09.170Z,23.98
2022-12-31T23:29:46.546Z,25.42
2022-12-31T23:32:17.974Z,26.17
2022-12-31T23:34:45.598Z,35.88
2022-12-31T23:37:15.447Z,25.95
2022-12-31T23:39:42.555Z,26.55
2022-12-31T23:42:09.268Z,20.02
2022-12-31T23:44:35.948Z,17.75
2022-12-31T23:47:02.536Z,16.88
2022-12-31T23:49:29.407Z,17.58
2022-12-31T23:51:56.004Z,20.40
2022-12-31T23:54:22.510Z,14.98
2022-12-31T23:56:49.134Z,14.07
2022-12-31T23:59:15.887Z,18.13
